sensor_id;sensor_type;location;lat;lon;timestamp;pressure;altitude;pressure_sealevel;temperature;humidity
26443;BME280;5563;52.296;6.806;2023-01-09T00:00:43;99257.63;;;7.15;87.18
26443;BME280;5563;52.296;6.806;2023-01-09T00:03:17;99258.44;;;7.15;86.85
26443;BME280;5563;52.296;6.806;2023-01-09T00:05:44;99261.09;;;7.15;87.54
26443;BME280;5563;52.296;6.806;2023-01-09T00:08:24;99271.56;;;7.17;87.29
26443;BME280;5563;52.296;6.806;2023-01-09T00:11:06;99271.44;;;7.18;87.77
26443;BME280;5563;52.296;6.806;2023-01-09T00:13:49;99285.34;;;7.20;87.58
26443;BME280;5563;52.296;6.806;2023-01-09T00:16:26;99282.16;;;7.17;88.13
26443;BME280;5563;52.296;6.806;2023-01-09T00:19:02;99279.50;;;7.17;87.94
26443;BME280;5563;52.296;6.806;2023-01-09T00:21:36;99272.84;;;7.13;88.35
26443;BME280;5563;52.296;6.806;2023-01-09T00:24:04;99270.03;;;7.14;88.70
26443;BME280;5563;52.296;6.806;2023-01-09T00:26:40;99265.28;;;7.18;88.68
26443;BME280;5563;52.296;6.806;2023-01-09T00:29:14;99270.44;;;7.19;88.85
26443;BME280;5563;52.296;6.806;2023-01-09T00:31:47;99266.94;;;7.19;89.20
26443;BME280;5563;52.296;6.806;2023-01-09T00:34:21;99274.91;;;7.19;88.61
26443;BME280;5563;52.296;6.806;2023-01-09T00:36:47;99287.06;;;7.21;88.65
26443;BME280;5563;52.296;6.806;2023-01-09T00:39:21;99290.09;;;7.17;88.73
26443;BME280;5563;52.296;6.806;2023-01-09T00:41:51;99290.00;;;7.18;89.04
26443;BME280;5563;52.296;6.806;2023-01-09T00:44:34;99279.09;;;7.12;88.77
26443;BME280;5563;52.296;6.806;2023-01-09T00:47:09;99293.88;;;7.14;89.29
26443;BME280;5563;52.296;6.806;2023-01-09T00:49:45;99282.44;;;7.14;89.45
26443;BME280;5563;52.296;6.806;2023-01-09T00:52:13;99278.94;;;7.13;89.43
26443;BME280;5563;52.296;6.806;2023-01-09T00:54:47;99284.25;;;7.13;89.36
26443;BME280;5563;52.296;6.806;2023-01-09T00:57:14;99279.94;;;7.12;89.12
26443;BME280;5563;52.296;6.806;2023-01-09T00:59:48;99280.91;;;7.11;89.33
26443;BME280;5563;52.296;6.806;2023-01-09T01:02:14;99288.84;;;7.11;89.25
26443;BME280;5563;52.296;6.806;2023-01-09T01:04:48;99282.59;;;7.12;89.20
26443;BME280;5563;52.296;6.806;2023-01-09T01:07:46;99294.28;;;7.10;89.45
26443;BME280;5563;52.296;6.806;2023-01-09T01:10:27;99316.47;;;7.09;89.42
26443;BME280;5563;52.296;6.806;2023-01-09T01:13:00;99321.09;;;7.07;89.06
26443;BME280;5563;52.296;6.806;2023-01-09T01:15:26;99303.94;;;6.92;88.69
26443;BME280;5563;52.296;6.806;2023-01-09T01:18:01;99288.56;;;6.76;88.07
26443;BME280;5563;52.296;6.806;2023-01-09T01:20:27;99294.66;;;6.67;87.89
26443;BME280;5563;52.296;6.806;2023-01-09T01:23:04;99307.25;;;6.65;88.11
26443;BME280;5563;52.296;6.806;2023-01-09T01:25:31;99302.63;;;6.57;88.01
26443;BME280;5563;52.296;6.806;2023-01-09T01:28:05;99304.56;;;6.55;88.07
26443;BME280;5563;52.296;6.806;2023-01-09T01:30:36;99313.34;;;6.56;88.31
26443;BME280;5563;52.296;6.806;2023-01-09T01:33:11;99302.88;;;6.54;88.47
26443;BME280;5563;52.296;6.806;2023-01-09T01:35:44;99321.84;;;6.60;88.12
26443;BME280;5563;52.296;6.806;2023-01-09T01:38:22;99315.84;;;6.57;88.20
26443;BME280;5563;52.296;6.806;2023-01-09T01:40:53;99316.94;;;6.55;88.07
26443;BME280;5563;52.296;6.806;2023-01-09T01:43:28;99320.31;;;6.57;88.40
26443;BME280;5563;52.296;6.806;2023-01-09T01:46:16;99313.91;;;6.60;88.83
26443;BME280;5563;52.296;6.806;2023-01-09T01:51:38;99315.84;;;6.57;88.67
26443;BME280;5563;52.296;6.806;2023-01-09T01:54:18;99320.16;;;6.58;89.20
26443;BME280;5563;52.296;6.806;2023-01-09T01:56:55;99322.94;;;6.57;89.13
26443;BME280;5563;52.296;6.806;2023-01-09T01:59:36;99329.09;;;6.57;89.24
26443;BME280;5563;52.296;6.806;2023-01-09T02:02:13;99318.06;;;6.52;89.56
26443;BME280;5563;52.296;6.806;2023-01-09T02:04:40;99338.69;;;6.58;89.64
26443;BME280;5563;52.296;6.806;2023-01-09T02:07:15;99350.41;;;6.56;89.43
26443;BME280;5563;52.296;6.806;2023-01-09T02:09:48;99335.63;;;6.53;89.45
26443;BME280;5563;52.296;6.806;2023-01-09T02:12:24;99337.72;;;6.50;89.75
26443;BME280;5563;52.296;6.806;2023-01-09T02:14:59;99336.16;;;6.47;89.42
26443;BME280;5563;52.296;6.806;2023-01-09T02:29:29;99338.88;;;6.27;88.82
26443;BME280;5563;52.296;6.806;2023-01-09T02:38:04;99345.38;;;6.13;88.97
26443;BME280;5563;52.296;6.806;2023-01-09T02:40:48;99345.63;;;6.10;88.97
26443;BME280;5563;52.296;6.806;2023-01-09T02:43:25;99338.50;;;6.01;88.60
26443;BME280;5563;52.296;6.806;2023-01-09T02:45:58;99339.00;;;5.95;88.70
26443;BME280;5563;52.296;6.806;2023-01-09T02:48:25;99348.59;;;5.96;88.64
26443;BME280;5563;52.296;6.806;2023-01-09T02:53:53;99340.88;;;5.84;88.84
26443;BME280;5563;52.296;6.806;2023-01-09T02:56:34;99341.38;;;5.78;88.82
26443;BME280;5563;52.296;6.806;2023-01-09T02:59:31;99355.47;;;5.78;89.11
26443;BME280;5563;52.296;6.806;2023-01-09T03:08:13;99353.09;;;5.64;89.11
26443;BME280;5563;52.296;6.806;2023-01-09T03:11:01;99362.28;;;5.60;89.34
26443;BME280;5563;52.296;6.806;2023-01-09T03:13:52;99354.72;;;5.56;89.40
26443;BME280;5563;52.296;6.806;2023-01-09T03:16:31;99360.41;;;5.51;89.31
26443;BME280;5563;52.296;6.806;2023-01-09T03:19:14;99359.13;;;5.45;89.09
26443;BME280;5563;52.296;6.806;2023-01-09T03:21:48;99364.75;;;5.41;89.76
26443;BME280;5563;52.296;6.806;2023-01-09T03:24:15;99362.53;;;5.36;89.61
26443;BME280;5563;52.296;6.806;2023-01-09T03:26:49;99372.25;;;5.36;89.64
26443;BME280;5563;52.296;6.806;2023-01-09T03:29:17;99358.00;;;5.27;89.24
26443;BME280;5563;52.296;6.806;2023-01-09T03:31:50;99379.13;;;5.27;89.79
26443;BME280;5563;52.296;6.806;2023-01-09T03:34:17;99382.16;;;5.23;89.75
26443;BME280;5563;52.296;6.806;2023-01-09T03:36:56;99376.28;;;5.19;89.77
26443;BME280;5563;52.296;6.806;2023-01-09T03:39:23;99392.16;;;5.19;89.70
26443;BME280;5563;52.296;6.806;2023-01-09T03:42:00;99387.09;;;5.16;89.64
26443;BME280;5563;52.296;6.806;2023-01-09T03:44:34;99386.50;;;5.13;89.99
26443;BME280;5563;52.296;6.806;2023-01-09T03:47:07;99386.88;;;5.08;90.23
26443;BME280;5563;52.296;6.806;2023-01-09T03:49:40;99391.47;;;5.06;90.29
26443;BME280;5563;52.296;6.806;2023-01-09T03:52:07;99394.34;;;5.03;90.18
26443;BME280;5563;52.296;6.806;2023-01-09T03:54:41;99388.34;;;5.01;90.42
26443;BME280;5563;52.296;6.806;2023-01-09T03:57:14;99399.19;;;4.98;90.36
26443;BME280;5563;52.296;6.806;2023-01-09T03:59:47;99387.03;;;4.96;90.16
26443;BME280;5563;52.296;6.806;2023-01-09T04:02:20;99398.44;;;4.96;90.49
26443;BME280;5563;52.296;6.806;2023-01-09T04:04:56;99396.63;;;4.97;90.68
26443;BME280;5563;52.296;6.806;2023-01-09T04:07:23;99399.41;;;4.95;90.23
26443;BME280;5563;52.296;6.806;2023-01-09T04:09:56;99391.41;;;4.86;90.45
26443;BME280;5563;52.296;6.806;2023-01-09T04:12:36;99400.72;;;4.90;90.45
26443;BME280;5563;52.296;6.806;2023-01-09T04:15:10;99401.84;;;4.87;90.42
26443;BME280;5563;52.296;6.806;2023-01-09T04:17:44;99404.81;;;4.83;90.57
26443;BME280;5563;52.296;6.806;2023-01-09T04:20:17;99407.47;;;4.83;90.39
26443;BME280;5563;52.296;6.806;2023-01-09T04:22:50;99404.09;;;4.81;90.52
26443;BME280;5563;52.296;6.806;2023-01-09T04:25:16;99403.50;;;4.77;90.47
26443;BME280;5563;52.296;6.806;2023-01-09T04:27:50;99396.81;;;4.73;90.41
26443;BME280;5563;52.296;6.806;2023-01-09T04:30:23;99395.25;;;4.71;90.65
26443;BME280;5563;52.296;6.806;2023-01-09T04:32:50;99404.28;;;4.68;90.57
26443;BME280;5563;52.296;6.806;2023-01-09T04:35:24;99406.06;;;4.68;90.98
26443;BME280;5563;52.296;6.806;2023-01-09T04:37:58;99400.91;;;4.66;91.15
26443;BME280;5563;52.296;6.806;2023-01-09T04:40:33;99415.19;;;4.64;90.59
26443;BME280;5563;52.296;6.806;2023-01-09T04:42:59;99405.00;;;4.59;90.50
26443;BME280;5563;52.296;6.806;2023-01-09T04:45:33;99399.94;;;4.56;91.09
26443;BME280;5563;52.296;6.806;2023-01-09T04:47:59;99407.03;;;4.56;90.83
26443;BME280;5563;52.296;6.806;2023-01-09T04:50:33;99419.50;;;4.54;91.06
26443;BME280;5563;52.296;6.806;2023-01-09T04:52:59;99418.78;;;4.52;90.67
26443;BME280;5563;52.296;6.806;2023-01-09T04:55:33;99419.72;;;4.51;90.76
26443;BME280;5563;52.296;6.806;2023-01-09T04:58:00;99430.28;;;4.51;90.92
26443;BME280;5563;52.296;6.806;2023-01-09T05:00:34;99414.22;;;4.43;90.83
26443;BME280;5563;52.296;6.806;2023-01-09T05:03:07;99426.09;;;4.48;90.76
26443;BME280;5563;52.296;6.806;2023-01-09T05:05:40;99419.13;;;4.47;90.92
26443;BME280;5563;52.296;6.806;2023-01-09T05:08:06;99423.72;;;4.45;90.83
26443;BME280;5563;52.296;6.806;2023-01-09T05:10:48;99434.97;;;4.47;91.09
26443;BME280;5563;52.296;6.806;2023-01-09T05:13:26;99438.31;;;4.49;91.17
26443;BME280;5563;52.296;6.806;2023-01-09T05:16:00;99432.31;;;4.47;90.96
26443;BME280;5563;52.296;6.806;2023-01-09T05:18:33;99431.50;;;4.47;90.96
26443;BME280;5563;52.296;6.806;2023-01-09T05:21:00;99436.06;;;4.45;90.98
26443;BME280;5563;52.296;6.806;2023-01-09T05:23:36;99444.09;;;4.43;91.09
26443;BME280;5563;52.296;6.806;2023-01-09T05:26:03;99435.47;;;4.41;91.04
26443;BME280;5563;52.296;6.806;2023-01-09T05:28:37;99448.53;;;4.43;91.16
26443;BME280;5563;52.296;6.806;2023-01-09T05:31:07;99442.28;;;4.43;91.37
26443;BME280;5563;52.296;6.806;2023-01-09T05:33:41;99452.63;;;4.47;91.29
26443;BME280;5563;52.296;6.806;2023-01-09T05:36:08;99453.69;;;4.44;91.10
26443;BME280;5563;52.296;6.806;2023-01-09T05:38:42;99448.16;;;4.47;91.47
26443;BME280;5563;52.296;6.806;2023-01-09T05:41:09;99443.13;;;4.44;91.63
26443;BME280;5563;52.296;6.806;2023-01-09T05:43:44;99445.53;;;4.47;91.37
26443;BME280;5563;52.296;6.806;2023-01-09T05:46:17;99454.88;;;4.51;91.41
26443;BME280;5563;52.296;6.806;2023-01-09T05:48:45;99456.69;;;4.51;91.18
26443;BME280;5563;52.296;6.806;2023-01-09T05:51:18;99459.22;;;4.52;91.35
26443;BME280;5563;52.296;6.806;2023-01-09T05:53:53;99454.88;;;4.51;91.00
26443;BME280;5563;52.296;6.806;2023-01-09T05:56:27;99463.53;;;4.53;90.99
26443;BME280;5563;52.296;6.806;2023-01-09T05:58:56;99456.59;;;4.52;91.19
26443;BME280;5563;52.296;6.806;2023-01-09T06:01:23;99448.75;;;4.51;91.18
26443;BME280;5563;52.296;6.806;2023-01-09T06:03:57;99454.53;;;4.56;91.15
26443;BME280;5563;52.296;6.806;2023-01-09T06:06:24;99451.78;;;4.57;91.00
26443;BME280;5563;52.296;6.806;2023-01-09T06:09:02;99444.47;;;4.61;91.09
26443;BME280;5563;52.296;6.806;2023-01-09T06:11:42;99444.94;;;4.66;91.13
26443;BME280;5563;52.296;6.806;2023-01-09T06:14:16;99452.97;;;4.75;90.85
26443;BME280;5563;52.296;6.806;2023-01-09T06:16:43;99439.78;;;4.75;90.91
26443;BME280;5563;52.296;6.806;2023-01-09T06:19:16;99451.53;;;4.82;90.77
26443;BME280;5563;52.296;6.806;2023-01-09T06:21:43;99447.91;;;4.83;90.89
26443;BME280;5563;52.296;6.806;2023-01-09T06:24:17;99455.72;;;4.85;90.39
26443;BME280;5563;52.296;6.806;2023-01-09T06:26:44;99460.66;;;4.89;90.74
26443;BME280;5563;52.296;6.806;2023-01-09T06:29:18;99458.00;;;4.89;90.39
26443;BME280;5563;52.296;6.806;2023-01-09T06:31:45;99453.19;;;4.94;90.10
26443;BME280;5563;52.296;6.806;2023-01-09T06:34:18;99458.94;;;4.99;90.30
26443;BME280;5563;52.296;6.806;2023-01-09T06:36:45;99457.03;;;5.01;90.12
26443;BME280;5563;52.296;6.806;2023-01-09T06:39:19;99454.25;;;5.03;90.00
26443;BME280;5563;52.296;6.806;2023-01-09T06:41:46;99456.50;;;5.07;89.91
26443;BME280;5563;52.296;6.806;2023-01-09T06:44:15;99457.97;;;5.11;89.70
26443;BME280;5563;52.296;6.806;2023-01-09T06:46:48;99454.38;;;5.12;89.80
26443;BME280;5563;52.296;6.806;2023-01-09T06:49:21;99455.09;;;5.14;90.05
26443;BME280;5563;52.296;6.806;2023-01-09T06:51:51;99454.69;;;5.19;89.74
26443;BME280;5563;52.296;6.806;2023-01-09T06:54:18;99460.72;;;5.21;89.55
26443;BME280;5563;52.296;6.806;2023-01-09T06:56:54;99460.59;;;5.22;89.63
26443;BME280;5563;52.296;6.806;2023-01-09T06:59:21;99458.66;;;5.24;89.56
26443;BME280;5563;52.296;6.806;2023-01-09T07:01:54;99464.53;;;5.28;89.42
26443;BME280;5563;52.296;6.806;2023-01-09T07:04:26;99449.28;;;5.31;89.54
26443;BME280;5563;52.296;6.806;2023-01-09T07:06:59;99452.38;;;5.36;89.14
26443;BME280;5563;52.296;6.806;2023-01-09T07:09:26;99447.09;;;5.36;89.10
26443;BME280;5563;52.296;6.806;2023-01-09T07:11:59;99456.44;;;5.40;89.30
26443;BME280;5563;52.296;6.806;2023-01-09T07:14:32;99446.59;;;5.42;89.31
26443;BME280;5563;52.296;6.806;2023-01-09T07:17:06;99445.63;;;5.43;89.12
26443;BME280;5563;52.296;6.806;2023-01-09T07:19:33;99448.00;;;5.46;88.94
26443;BME280;5563;52.296;6.806;2023-01-09T07:22:10;99444.16;;;5.50;89.00
26443;BME280;5563;52.296;6.806;2023-01-09T07:24:47;99445.72;;;5.53;88.92
26443;BME280;5563;52.296;6.806;2023-01-09T07:27:21;99447.38;;;5.54;88.57
26443;BME280;5563;52.296;6.806;2023-01-09T07:29:54;99443.06;;;5.53;88.78
26443;BME280;5563;52.296;6.806;2023-01-09T07:32:21;99450.03;;;5.54;88.92
26443;BME280;5563;52.296;6.806;2023-01-09T07:34:54;99454.59;;;5.52;88.93
26443;BME280;5563;52.296;6.806;2023-01-09T07:37:21;99457.09;;;5.53;88.70
26443;BME280;5563;52.296;6.806;2023-01-09T07:39:54;99450.03;;;5.54;88.75
26443;BME280;5563;52.296;6.806;2023-01-09T07:42:20;99455.44;;;5.53;88.66
26443;BME280;5563;52.296;6.806;2023-01-09T07:44:54;99456.41;;;5.52;88.83
26443;BME280;5563;52.296;6.806;2023-01-09T07:47:21;99463.38;;;5.53;88.82
26443;BME280;5563;52.296;6.806;2023-01-09T07:49:54;99462.97;;;5.57;88.56
26443;BME280;5563;52.296;6.806;2023-01-09T07:52:21;99462.88;;;5.59;88.67
26443;BME280;5563;52.296;6.806;2023-01-09T07:54:54;99462.34;;;5.65;88.44
26443;BME280;5563;52.296;6.806;2023-01-09T07:57:21;99465.13;;;5.63;88.18
26443;BME280;5563;52.296;6.806;2023-01-09T07:59:57;99452.38;;;5.68;88.32
26443;BME280;5563;52.296;6.806;2023-01-09T08:02:33;99465.59;;;5.68;88.44
26443;BME280;5563;52.296;6.806;2023-01-09T08:05:00;99466.44;;;5.69;88.60
26443;BME280;5563;52.296;6.806;2023-01-09T08:07:33;99455.13;;;5.67;88.89
26443;BME280;5563;52.296;6.806;2023-01-09T08:10:07;99461.28;;;5.67;88.70
26443;BME280;5563;52.296;6.806;2023-01-09T08:12:42;99470.16;;;5.66;89.12
26443;BME280;5563;52.296;6.806;2023-01-09T08:15:15;99464.88;;;5.66;88.83
26443;BME280;5563;52.296;6.806;2023-01-09T08:17:49;99466.44;;;5.69;89.03
26443;BME280;5563;52.296;6.806;2023-01-09T08:20:16;99468.09;;;5.70;89.03
26443;BME280;5563;52.296;6.806;2023-01-09T08:22:49;99469.06;;;5.69;89.43
26443;BME280;5563;52.296;6.806;2023-01-09T08:25:16;99474.38;;;5.69;89.17
26443;BME280;5563;52.296;6.806;2023-01-09T08:27:51;99466.56;;;5.67;89.38
26443;BME280;5563;52.296;6.806;2023-01-09T08:30:22;99470.50;;;5.73;89.30
26443;BME280;5563;52.296;6.806;2023-01-09T08:32:56;99478.06;;;5.77;88.98
26443;BME280;5563;52.296;6.806;2023-01-09T08:35:23;99480.34;;;5.82;88.81
26443;BME280;5563;52.296;6.806;2023-01-09T08:37:57;99478.78;;;5.79;88.97
26443;BME280;5563;52.296;6.806;2023-01-09T08:40:23;99476.00;;;5.81;89.08
26443;BME280;5563;52.296;6.806;2023-01-09T08:42:57;99476.00;;;5.81;89.53
26443;BME280;5563;52.296;6.806;2023-01-09T08:45:49;99479.47;;;5.81;89.25
26443;BME280;5563;52.296;6.806;2023-01-09T08:48:35;99472.50;;;5.80;89.53
26443;BME280;5563;52.296;6.806;2023-01-09T08:51:09;99483.59;;;5.85;89.58
26443;BME280;5563;52.296;6.806;2023-01-09T08:53:49;99487.91;;;5.86;89.74
26443;BME280;5563;52.296;6.806;2023-01-09T08:56:22;99484.28;;;5.87;89.52
26443;BME280;5563;52.296;6.806;2023-01-09T08:58:52;99494.28;;;5.84;89.41
26443;BME280;5563;52.296;6.806;2023-01-09T09:01:25;99492.47;;;5.84;89.58
26443;BME280;5563;52.296;6.806;2023-01-09T09:03:58;99491.63;;;5.84;89.82
26443;BME280;5563;52.296;6.806;2023-01-09T09:06:34;99489.00;;;5.84;89.88
26443;BME280;5563;52.296;6.806;2023-01-09T09:09:03;99489.97;;;5.83;89.92
26443;BME280;5563;52.296;6.806;2023-01-09T09:11:44;99488.16;;;5.83;89.88
26443;BME280;5563;52.296;6.806;2023-01-09T09:14:18;99477.31;;;5.86;90.06
26443;BME280;5563;52.296;6.806;2023-01-09T09:17:10;99477.31;;;5.86;90.37
26443;BME280;5563;52.296;6.806;2023-01-09T09:19:36;99478.41;;;5.84;90.09
26443;BME280;5563;52.296;6.806;2023-01-09T09:22:11;99478.31;;;5.85;90.38
26443;BME280;5563;52.296;6.806;2023-01-09T09:24:39;99473.84;;;5.86;90.35
26443;BME280;5563;52.296;6.806;2023-01-09T09:27:12;99484.41;;;5.86;90.53
26443;BME280;5563;52.296;6.806;2023-01-09T09:29:38;99483.59;;;5.85;90.66
26443;BME280;5563;52.296;6.806;2023-01-09T09:32:12;99489.69;;;5.86;90.73
26443;BME280;5563;52.296;6.806;2023-01-09T09:34:46;99483.59;;;5.85;90.70
26443;BME280;5563;52.296;6.806;2023-01-09T09:37:19;99488.16;;;5.83;90.77
26443;BME280;5563;52.296;6.806;2023-01-09T09:39:54;99492.63;;;5.83;90.93
26443;BME280;5563;52.296;6.806;2023-01-09T09:42:54;99501.50;;;5.82;91.07
26443;BME280;5563;52.296;6.806;2023-01-09T09:48:43;99515.66;;;5.81;90.93
26443;BME280;5563;52.296;6.806;2023-01-09T09:54:38;99502.97;;;5.75;90.25
26443;BME280;5563;52.296;6.806;2023-01-09T09:57:11;99508.47;;;5.72;90.44
26443;BME280;5563;52.296;6.806;2023-01-09T09:59:46;99494.81;;;5.67;90.24
26443;BME280;5563;52.296;6.806;2023-01-09T10:02:38;99505.97;;;5.70;90.13
26443;BME280;5563;52.296;6.806;2023-01-09T10:05:35;99516.69;;;5.69;90.52
26443;BME280;5563;52.296;6.806;2023-01-09T10:08:33;99519.19;;;5.70;90.66
26443;BME280;5563;52.296;6.806;2023-01-09T10:11:24;99510.09;;;5.63;90.62
26443;BME280;5563;52.296;6.806;2023-01-09T10:14:01;99526.03;;;5.73;90.98
26443;BME280;5563;52.296;6.806;2023-01-09T10:16:52;99518.69;;;5.76;90.99
26443;BME280;5563;52.296;6.806;2023-01-09T10:28:21;99516.25;;;5.95;91.47
26443;BME280;5563;52.296;6.806;2023-01-09T10:34:05;99521.13;;;6.00;91.48
26443;BME280;5563;52.296;6.806;2023-01-09T10:39:26;99518.41;;;6.01;91.47
26443;BME280;5563;52.296;6.806;2023-01-09T10:47:45;99521.13;;;6.00;91.78
26443;BME280;5563;52.296;6.806;2023-01-09T10:50:27;99524.63;;;6.00;91.71
26443;BME280;5563;52.296;6.806;2023-01-09T10:53:26;99519.34;;;6.00;91.35
26443;BME280;5563;52.296;6.806;2023-01-09T10:58:41;99526.19;;;6.03;91.70
26443;BME280;5563;52.296;6.806;2023-01-09T11:01:18;99523.41;;;6.04;91.75
26443;BME280;5563;52.296;6.806;2023-01-09T11:03:50;99531.09;;;6.07;91.61
26443;BME280;5563;52.296;6.806;2023-01-09T11:06:35;99535.44;;;6.08;91.43
26443;BME280;5563;52.296;6.806;2023-01-09T11:09:03;99546.97;;;6.07;91.67
26443;BME280;5563;52.296;6.806;2023-01-09T11:11:44;99542.41;;;6.09;91.53
26443;BME280;5563;52.296;6.806;2023-01-09T11:14:24;99553.44;;;6.14;91.57
26443;BME280;5563;52.296;6.806;2023-01-09T11:17:03;99552.34;;;6.17;91.34
26443;BME280;5563;52.296;6.806;2023-01-09T11:20:06;99560.59;;;6.23;91.11
26443;BME280;5563;52.296;6.806;2023-01-09T11:22:49;99555.91;;;6.27;91.16
26443;BME280;5563;52.296;6.806;2023-01-09T11:25:19;99562.75;;;6.29;91.11
26443;BME280;5563;52.296;6.806;2023-01-09T11:30:29;99563.47;;;6.31;90.96
26443;BME280;5563;52.296;6.806;2023-01-09T11:33:14;99574.66;;;6.35;90.77
26443;BME280;5563;52.296;6.806;2023-01-09T11:36:03;99577.28;;;6.35;91.01
26443;BME280;5563;52.296;6.806;2023-01-09T11:39:03;99582.44;;;6.36;90.93
26443;BME280;5563;52.296;6.806;2023-01-09T11:41:38;99595.41;;;6.39;90.91
26443;BME280;5563;52.296;6.806;2023-01-09T11:44:15;99595.56;;;6.38;90.14
26443;BME280;5563;52.296;6.806;2023-01-09T11:46:45;99607.22;;;6.35;90.07
26443;BME280;5563;52.296;6.806;2023-01-09T11:49:26;99604.13;;;6.30;89.31
26443;BME280;5563;52.296;6.806;2023-01-09T11:52:13;99605.72;;;6.22;89.56
26443;BME280;5563;52.296;6.806;2023-01-09T11:55:01;99610.78;;;6.14;89.56
26443;BME280;5563;52.296;6.806;2023-01-09T11:57:40;99615.75;;;6.07;89.47
26443;BME280;5563;52.296;6.806;2023-01-09T12:00:27;99622.25;;;6.03;89.68
26443;BME280;5563;52.296;6.806;2023-01-09T12:06:38;99632.50;;;5.97;90.00
26443;BME280;5563;52.296;6.806;2023-01-09T12:09:09;99628.06;;;5.97;89.85
26443;BME280;5563;52.296;6.806;2023-01-09T12:24:14;99662.53;;;6.07;91.03
26443;BME280;5563;52.296;6.806;2023-01-09T12:26:25;99662.31;;;6.10;90.90
26443;BME280;5563;52.296;6.806;2023-01-09T12:29:22;99658.56;;;6.12;91.17
26443;BME280;5563;52.296;6.806;2023-01-09T12:32:21;99659.88;;;6.18;91.19
26443;BME280;5563;52.296;6.806;2023-01-09T12:46:22;99674.81;;;6.71;90.33
26443;BME280;5563;52.296;6.806;2023-01-09T12:49:33;99676.84;;;6.79;90.09
26443;BME280;5563;52.296;6.806;2023-01-09T12:57:45;99686.19;;;7.24;90.34
26443;BME280;5563;52.296;6.806;2023-01-09T13:00:31;99686.09;;;7.55;90.03
26443;BME280;5563;52.296;6.806;2023-01-09T13:03:08;99687.00;;;7.75;88.99
26443;BME280;5563;52.296;6.806;2023-01-09T13:05:49;99691.31;;;8.16;88.90
26443;BME280;5563;52.296;6.806;2023-01-09T13:08:38;99693.34;;;8.33;86.91
26443;BME280;5563;52.296;6.806;2023-01-09T13:11:15;99698.22;;;8.37;86.92
26443;BME280;5563;52.296;6.806;2023-01-09T13:13:58;99697.75;;;8.23;86.36
26443;BME280;5563;52.296;6.806;2023-01-09T13:16:36;99701.47;;;8.01;85.86
26443;BME280;5563;52.296;6.806;2023-01-09T13:19:23;99707.31;;;7.86;86.21
26443;BME280;5563;52.296;6.806;2023-01-09T13:22:00;99717.44;;;7.81;86.92
26443;BME280;5563;52.296;6.806;2023-01-09T13:27:12;99730.94;;;7.68;86.63
26443;BME280;5563;52.296;6.806;2023-01-09T13:29:59;99731.63;;;7.60;86.81
26443;BME280;5563;52.296;6.806;2023-01-09T13:35:20;99752.84;;;7.60;87.14
26443;BME280;5563;52.296;6.806;2023-01-09T13:37:51;99753.09;;;7.57;86.92
26443;BME280;5563;52.296;6.806;2023-01-09T13:40:26;99772.91;;;7.53;86.91
26443;BME280;5563;52.296;6.806;2023-01-09T13:43:15;99774.00;;;7.51;87.14
26443;BME280;5563;52.296;6.806;2023-01-09T13:45:50;99777.88;;;7.47;86.87
26443;BME280;5563;52.296;6.806;2023-01-09T13:48:27;99780.06;;;7.42;87.19
26443;BME280;5563;52.296;6.806;2023-01-09T13:54:09;99782.69;;;7.32;87.47
26443;BME280;5563;52.296;6.806;2023-01-09T14:05:16;99801.28;;;7.21;88.06
26443;BME280;5563;52.296;6.806;2023-01-09T14:08:16;99808.66;;;7.18;88.03
26443;BME280;5563;52.296;6.806;2023-01-09T14:10:59;99813.38;;;7.14;87.99
26443;BME280;5563;52.296;6.806;2023-01-09T14:16:20;99820.97;;;7.08;88.40
26443;BME280;5563;52.296;6.806;2023-01-09T14:19:03;99825.59;;;7.06;88.23
26443;BME280;5563;52.296;6.806;2023-01-09T14:21:51;99831.97;;;7.03;88.59
26443;BME280;5563;52.296;6.806;2023-01-09T14:24:46;99846.28;;;7.01;88.82
26443;BME280;5563;52.296;6.806;2023-01-09T14:33:24;99865.72;;;6.90;89.27
26443;BME280;5563;52.296;6.806;2023-01-09T14:38:58;99893.69;;;6.83;90.13
26443;BME280;5563;52.296;6.806;2023-01-09T14:42:15;99893.94;;;6.80;90.39
26443;BME280;5563;52.296;6.806;2023-01-09T14:50:16;99906.84;;;6.74;90.55
26443;BME280;5563;52.296;6.806;2023-01-09T14:52:48;99918.25;;;6.74;89.97
26443;BME280;5563;52.296;6.806;2023-01-09T14:55:35;99922.84;;;6.72;89.70
26443;BME280;5563;52.296;6.806;2023-01-09T14:58:10;99935.38;;;6.70;89.65
26443;BME280;5563;52.296;6.806;2023-01-09T15:01:10;99939.34;;;6.65;89.56
26443;BME280;5563;52.296;6.806;2023-01-09T15:03:44;99942.72;;;6.55;89.43
26443;BME280;5563;52.296;6.806;2023-01-09T15:06:24;99951.97;;;6.50;89.47
26443;BME280;5563;52.296;6.806;2023-01-09T15:09:18;99962.94;;;6.45;89.54
26443;BME280;5563;52.296;6.806;2023-01-09T15:12:05;99967.03;;;6.38;89.51
26443;BME280;5563;52.296;6.806;2023-01-09T15:14:42;99967.75;;;6.29;89.67
26443;BME280;5563;52.296;6.806;2023-01-09T15:17:20;99978.41;;;6.28;89.71
26443;BME280;5563;52.296;6.806;2023-01-09T15:19:55;99983.22;;;6.23;89.67
26443;BME280;5563;52.296;6.806;2023-01-09T15:22:31;99986.13;;;6.20;89.58
26443;BME280;5563;52.296;6.806;2023-01-09T15:25:25;99993.19;;;6.19;89.56
26443;BME280;5563;52.296;6.806;2023-01-09T15:28:28;99995.13;;;6.17;89.24
26443;BME280;5563;52.296;6.806;2023-01-09T15:31:05;99994.50;;;6.14;89.45
26443;BME280;5563;52.296;6.806;2023-01-09T15:33:45;100000.91;;;6.11;89.25
26443;BME280;5563;52.296;6.806;2023-01-09T15:36:31;100002.94;;;6.08;89.37
26443;BME280;5563;52.296;6.806;2023-01-09T15:39:05;100005.91;;;6.03;89.57
26443;BME280;5563;52.296;6.806;2023-01-09T15:41:32;100014.69;;;6.04;89.51
26443;BME280;5563;52.296;6.806;2023-01-09T15:44:26;100022.03;;;6.00;89.59
26443;BME280;5563;52.296;6.806;2023-01-09T15:47:04;100033.66;;;5.98;89.67
26443;BME280;5563;52.296;6.806;2023-01-09T15:49:32;100045.22;;;5.97;89.64
26443;BME280;5563;52.296;6.806;2023-01-09T15:52:09;100054.22;;;5.94;89.55
26443;BME280;5563;52.296;6.806;2023-01-09T15:54:45;100049.91;;;5.93;89.74
26443;BME280;5563;52.296;6.806;2023-01-09T16:03:28;100075.16;;;7.98;91.46
26443;BME280;5563;52.296;6.806;2023-01-09T16:06:09;100082.09;;;12.23;78.40
26443;BME280;5563;52.296;6.806;2023-01-09T16:08:49;100087.34;;;13.86;66.32
26443;BME280;5563;52.296;6.806;2023-01-09T16:14:21;100102.44;;;8.31;77.34
26443;BME280;5563;52.296;6.806;2023-01-09T16:17:04;100101.81;;;7.31;81.66
26443;BME280;5563;52.296;6.806;2023-01-09T16:22:54;100123.59;;;6.45;86.37
26443;BME280;5563;52.296;6.806;2023-01-09T16:25:32;100130.38;;;6.25;86.58
26443;BME280;5563;52.296;6.806;2023-01-09T16:28:13;100135.63;;;6.14;87.69
26443;BME280;5563;52.296;6.806;2023-01-09T16:31:01;100145.31;;;6.03;87.81